Time;durP1;ratioP1;P1;durP2;ratioP2;P2;SDS_P1;SDS_P2;PMS_P1;PMS_P2;Temp;Humidity;BMP_temperature;BMP_pressure;BME280_temperature;BME280_humidity;BME280_pressure;Samples;Min_cycle;Max_cycle;Signal;HPM_P1;HPM_P2
2021/09/07 00:00:19;;;;;;;9.40;8.40;;;18.70;99.90;;;;;;5073290;28;20179;-76
2021/09/07 00:02:45;;;;;;;10.10;8.03;;;18.70;99.90;;;;;;5054994;28;20164;-76
2021/09/07 00:05:15;;;;;;;9.47;8.47;;;18.70;99.90;;;;;;5054999;28;20204;-76
2021/09/07 00:07:41;;;;;;;9.67;7.70;;;18.70;99.90;;;;;;5072501;28;20561;-77
2021/09/07 00:10:09;;;;;;;10.77;7.40;;;18.70;99.90;;;;;;5038498;28;20957;-76
2021/09/07 00:12:36;;;;;;;10.00;7.77;;;18.70;99.90;;;;;;5054865;28;20563;-76
2021/09/07 00:15:03;;;;;;;10.83;8.37;;;18.60;99.90;;;;;;5038503;28;20563;-76
2021/09/07 00:17:29;;;;;;;9.73;8.70;;;18.60;99.90;;;;;;5072359;28;20577;-76
2021/09/07 00:19:55;;;;;;;10.23;9.00;;;18.60;99.90;;;;;;5072597;28;20573;-76
2021/09/07 00:22:20;;;;;;;10.30;8.50;;;18.60;99.90;;;;;;5072480;28;21036;-76
2021/09/07 00:24:46;;;;;;;11.13;7.97;;;18.60;99.90;;;;;;5072701;28;20195;-76
2021/09/07 00:27:12;;;;;;;9.43;8.40;;;18.60;99.90;;;;;;5054646;28;20164;-77
2021/09/07 00:29:38;;;;;;;12.40;10.00;;;18.60;99.90;;;;;;5053883;28;20172;-77
2021/09/07 00:32:04;;;;;;;10.73;8.80;;;18.60;99.90;;;;;;5072479;28;20974;-75
2021/09/07 00:34:30;;;;;;;10.50;9.40;;;18.60;99.90;;;;;;5072445;28;20538;-76
2021/09/07 00:36:56;;;;;;;11.93;8.43;;;18.60;99.90;;;;;;5072034;28;20563;-76
2021/09/07 00:39:22;;;;;;;11.47;8.67;;;18.50;99.90;;;;;;5072187;28;20925;-76
2021/09/07 00:41:48;;;;;;;10.50;8.90;;;18.60;99.90;;;;;;5054526;28;20283;-75
2021/09/07 00:44:20;;;;;;;9.80;8.80;;;18.60;99.90;;;;;;5054244;28;20585;-75
2021/09/07 00:46:51;;;;;;;9.90;8.50;;;18.50;99.90;;;;;;5053978;28;20200;-75
2021/09/07 00:49:17;;;;;;;10.27;8.57;;;18.50;99.90;;;;;;5071883;28;20618;-75
2021/09/07 00:51:46;;;;;;;10.37;8.60;;;18.50;99.90;;;;;;5037433;28;20622;-77
2021/09/07 00:54:12;;;;;;;10.53;9.30;;;18.50;99.90;;;;;;5071854;28;20631;-75
2021/09/07 00:56:41;;;;;;;10.90;9.00;;;18.50;99.90;;;;;;5071560;28;20657;-75
2021/09/07 00:59:08;;;;;;;10.20;8.40;;;18.60;99.90;;;;;;5071909;28;20610;-76
2021/09/07 01:01:34;;;;;;;10.27;9.10;;;18.60;99.90;;;;;;5054551;28;20736;-76
2021/09/07 01:03:59;;;;;;;14.93;10.30;;;18.60;99.90;;;;;;5054190;28;20578;-76
2021/09/07 01:06:30;;;;;;;12.07;9.07;;;18.60;99.90;;;;;;5054425;28;20591;-75
2021/09/07 01:08:57;;;;;;;10.57;8.67;;;18.60;99.90;;;;;;5072879;28;20659;-75
2021/09/07 01:11:24;;;;;;;11.17;9.20;;;18.60;99.90;;;;;;5072030;28;20615;-75
2021/09/07 01:13:50;;;;;;;9.97;8.97;;;18.60;99.90;;;;;;5072200;28;21114;-75
2021/09/07 01:16:20;;;;;;;10.43;9.00;;;18.70;99.90;;;;;;5070489;28;20583;-76
2021/09/07 01:18:45;;;;;;;10.90;9.70;;;18.70;99.90;;;;;;5071131;28;20590;-75
2021/09/07 01:21:13;;;;;;;11.60;10.17;;;18.70;99.90;;;;;;5071457;28;20622;-75
2021/09/07 01:23:42;;;;;;;10.60;9.50;;;18.70;99.90;;;;;;5051899;28;20223;-75
2021/09/07 01:26:10;;;;;;;13.13;10.50;;;18.70;99.90;;;;;;5068729;28;20610;-75
2021/09/07 01:28:35;;;;;;;11.10;9.90;;;18.70;99.90;;;;;;5071511;28;20586;-75
2021/09/07 01:31:07;;;;;;;12.07;9.43;;;18.70;99.90;;;;;;5038471;28;20633;-75
2021/09/07 01:33:33;;;;;;;11.80;9.73;;;18.70;99.90;;;;;;5037415;28;20691;-76
2021/09/07 01:36:00;;;;;;;12.63;10.07;;;18.70;99.90;;;;;;5043271;28;20586;-76
2021/09/07 01:38:28;;;;;;;10.17;9.07;;;18.70;99.90;;;;;;5070654;28;20586;-75
2021/09/07 01:40:54;;;;;;;12.80;8.90;;;18.70;99.90;;;;;;5071173;28;20614;-75
2021/09/07 01:43:21;;;;;;;10.57;9.37;;;18.70;99.90;;;;;;5070937;28;20593;-76
2021/09/07 01:45:50;;;;;;;11.70;10.50;;;18.70;99.90;;;;;;5054294;28;20669;-76
2021/09/07 01:48:18;;;;;;;11.07;9.33;;;18.60;99.90;;;;;;5070831;28;20570;-76
2021/09/07 01:50:45;;;;;;;12.30;10.57;;;18.60;99.90;;;;;;5070350;28;20688;-76
2021/09/07 01:53:10;;;;;;;9.40;8.40;;;18.50;99.90;;;;;;5066473;28;20577;-76
2021/09/07 01:55:36;;;;;;;13.30;10.00;;;18.50;99.90;;;;;;5070029;28;20571;-76
2021/09/07 01:58:03;;;;;;;10.87;9.77;;;18.50;99.90;;;;;;5070956;28;20567;-75
2021/09/07 02:00:30;;;;;;;12.13;10.37;;;18.50;99.90;;;;;;5069941;28;20659;-76
2021/09/07 02:02:57;;;;;;;11.40;9.63;;;18.40;99.90;;;;;;5071372;28;20574;-76
2021/09/07 02:05:24;;;;;;;12.53;11.13;;;18.40;99.90;;;;;;5070937;28;20610;-76
2021/09/07 02:07:50;;;;;;;15.00;11.43;;;18.40;99.90;;;;;;5070952;28;20558;-76
2021/09/07 02:10:16;;;;;;;15.00;11.13;;;18.40;99.90;;;;;;5069625;28;20674;-76
2021/09/07 02:12:42;;;;;;;12.50;10.03;;;18.40;99.90;;;;;;5071325;28;20681;-75
2021/09/07 02:15:09;;;;;;;16.00;10.33;;;18.40;99.90;;;;;;5070897;28;20598;-76
2021/09/07 02:17:37;;;;;;;12.27;9.20;;;18.40;99.90;;;;;;5070825;28;20978;-76
2021/09/07 02:20:04;;;;;;;12.17;10.87;;;18.40;99.90;;;;;;5071048;28;20636;-76
2021/09/07 02:22:31;;;;;;;12.77;9.87;;;18.40;99.90;;;;;;5071150;28;21395;-76
2021/09/07 02:24:56;;;;;;;11.17;9.67;;;18.40;99.90;;;;;;5070936;28;20610;-76
2021/09/07 02:27:24;;;;;;;11.60;10.40;;;18.40;99.90;;;;;;5070718;28;20175;-75
2021/09/07 02:29:50;;;;;;;11.20;10.10;;;18.40;99.90;;;;;;5071146;28;20559;-75
2021/09/07 02:32:17;;;;;;;11.10;10.00;;;18.30;99.90;;;;;;5052677;28;20622;-76
2021/09/07 02:34:44;;;;;;;12.57;10.13;;;18.30;99.90;;;;;;5070924;28;21086;-77
2021/09/07 02:37:11;;;;;;;10.70;9.60;;;18.30;99.90;;;;;;5070494;28;20987;-77
2021/09/07 02:39:37;;;;;;;11.97;10.63;;;18.30;99.90;;;;;;5069948;28;20570;-76
2021/09/07 02:42:04;;;;;;;11.97;9.60;;;18.20;99.90;;;;;;5069467;28;21192;-75
2021/09/07 02:44:31;;;;;;;13.03;10.47;;;18.20;99.90;;;;;;5069592;28;21084;-75
2021/09/07 02:46:57;;;;;;;10.30;9.20;;;18.20;99.90;;;;;;5070573;28;20898;-76
2021/09/07 02:49:25;;;;;;;10.80;9.40;;;18.20;99.90;;;;;;5052804;28;20613;-75
2021/09/07 02:51:53;;;;;;;11.40;10.20;;;18.20;99.90;;;;;;5071099;28;20660;-76
2021/09/07 02:54:21;;;;;;;10.67;9.53;;;18.20;99.90;;;;;;5074501;28;20669;-76
2021/09/07 02:56:47;;;;;;;13.20;10.37;;;18.10;99.90;;;;;;5073977;28;20610;-75
2021/09/07 02:59:14;;;;;;;11.20;9.10;;;18.10;99.90;;;;;;5056271;28;20610;-76
2021/09/07 03:01:40;;;;;;;11.83;10.50;;;18.10;99.90;;;;;;5074072;28;20602;-76
2021/09/07 03:04:05;;;;;;;13.00;10.33;;;18.10;99.90;;;;;;5072842;28;20585;-76
2021/09/07 03:06:31;;;;;;;11.53;10.37;;;18.10;99.90;;;;;;5073783;28;20247;-75
2021/09/07 03:08:58;;;;;;;14.33;11.77;;;18.10;99.90;;;;;;5073048;28;20565;-75
2021/09/07 03:11:24;;;;;;;15.50;11.60;;;18.00;99.90;;;;;;5073938;28;21175;-75
2021/09/07 03:13:50;;;;;;;12.67;10.83;;;18.00;99.90;;;;;;5074139;28;20563;-76
2021/09/07 03:16:17;;;;;;;12.17;10.37;;;18.00;99.90;;;;;;5073623;28;20594;-77
2021/09/07 03:18:43;;;;;;;13.40;11.43;;;18.00;99.90;;;;;;5056061;28;20581;-75
2021/09/07 03:21:09;;;;;;;11.50;9.77;;;18.00;99.90;;;;;;5073706;28;20594;-76
2021/09/07 03:23:34;;;;;;;11.50;9.77;;;17.90;99.90;;;;;;5074090;28;20176;-77
2021/09/07 03:26:01;;;;;;;10.20;9.13;;;17.90;99.90;;;;;;5073982;28;20622;-76
2021/09/07 03:28:27;;;;;;;12.30;10.53;;;17.90;99.90;;;;;;5073512;28;20575;-76
2021/09/07 03:30:53;;;;;;;10.63;9.53;;;17.90;99.90;;;;;;5072610;28;20835;-77
2021/09/07 03:33:19;;;;;;;13.20;10.10;;;17.90;99.90;;;;;;5073855;28;20164;-76
2021/09/07 03:35:45;;;;;;;13.10;11.53;;;17.80;99.90;;;;;;5078501;28;20169;-76
2021/09/07 03:38:12;;;;;;;11.30;10.00;;;17.80;99.90;;;;;;5075394;28;20168;-76
2021/09/07 03:40:39;;;;;;;13.30;11.63;;;17.80;99.90;;;;;;5077457;28;20594;-76
2021/09/07 03:43:05;;;;;;;14.10;10.10;;;17.80;99.90;;;;;;5076243;28;20661;-77
2021/09/07 03:45:32;;;;;;;13.00;10.80;;;17.80;99.90;;;;;;5074020;28;20621;-75
2021/09/07 03:47:58;;;;;;;12.77;11.20;;;17.80;99.90;;;;;;5073693;28;20559;-75
2021/09/07 03:50:24;;;;;;;11.43;10.23;;;17.80;99.90;;;;;;5072736;28;21191;-75
2021/09/07 03:52:51;;;;;;;12.60;11.33;;;17.80;99.90;;;;;;5075737;28;20988;-77
2021/09/07 03:55:17;;;;;;;11.00;9.90;;;17.80;99.90;;;;;;5075264;28;20571;-76
2021/09/07 03:57:44;;;;;;;12.23;10.03;;;17.80;99.90;;;;;;5073400;28;20618;-76
2021/09/07 04:00:12;;;;;;;11.77;10.40;;;17.80;99.90;;;;;;5072116;28;20982;-76
2021/09/07 04:02:40;;;;;;;10.93;9.90;;;17.80;99.90;;;;;;5072954;28;20666;-76
2021/09/07 04:05:07;;;;;;;12.50;11.20;;;17.80;99.90;;;;;;5071723;28;21160;-77
2021/09/07 04:07:34;;;;;;;11.30;10.10;;;17.80;99.90;;;;;;5071380;28;20571;-76
2021/09/07 04:10:01;;;;;;;13.03;11.70;;;17.90;99.90;;;;;;5071569;28;20577;-77
2021/09/07 04:12:27;;;;;;;11.30;10.10;;;17.90;99.90;;;;;;5072763;28;20681;-76
2021/09/07 04:14:53;;;;;;;11.83;10.00;;;17.90;99.90;;;;;;5071740;28;20956;-76
2021/09/07 04:17:19;;;;;;;10.53;9.40;;;17.90;99.90;;;;;;5071168;28;20570;-77
2021/09/07 04:19:46;;;;;;;11.30;9.77;;;17.90;99.90;;;;;;5072816;28;20622;-76
2021/09/07 04:22:13;;;;;;;12.73;10.20;;;18.00;99.90;;;;;;5054959;28;20591;-77
2021/09/07 04:24:39;;;;;;;12.23;10.60;;;18.00;99.90;;;;;;5071366;28;20635;-77
2021/09/07 04:27:05;;;;;;;11.40;9.83;;;18.00;99.90;;;;;;5072171;28;21122;-77
2021/09/07 04:29:31;;;;;;;11.03;9.93;;;18.00;99.90;;;;;;5071126;28;20582;-76
2021/09/07 04:31:56;;;;;;;11.17;9.77;;;18.00;99.90;;;;;;5071946;28;20314;-77
2021/09/07 04:34:22;;;;;;;10.47;9.37;;;18.00;99.90;;;;;;5071804;28;20268;-77
2021/09/07 04:36:48;;;;;;;12.83;10.03;;;18.00;99.90;;;;;;5071246;28;20168;-77
2021/09/07 04:39:13;;;;;;;11.43;10.30;;;18.00;99.90;;;;;;5071730;28;20182;-77
2021/09/07 04:41:39;;;;;;;13.17;11.37;;;18.00;99.90;;;;;;5070816;28;20668;-77
2021/09/07 04:44:06;;;;;;;13.23;11.33;;;18.00;99.90;;;;;;5072053;28;20181;-77
2021/09/07 04:46:33;;;;;;;13.17;11.87;;;18.00;99.90;;;;;;5058443;28;20590;-77
2021/09/07 04:48:59;;;;;;;13.80;12.30;;;18.00;99.90;;;;;;5071578;28;20571;-77
2021/09/07 04:51:26;;;;;;;18.20;12.40;;;18.00;99.90;;;;;;5049942;28;20650;-77
2021/09/07 04:53:52;;;;;;;12.33;10.70;;;18.00;99.90;;;;;;5064319;28;20624;-77
2021/09/07 04:56:18;;;;;;;12.83;10.67;;;17.90;99.90;;;;;;5042800;28;20595;-77
2021/09/07 04:58:44;;;;;;;14.80;11.10;;;17.90;99.90;;;;;;5071046;28;20587;-77
2021/09/07 05:01:13;;;;;;;13.13;11.87;;;17.90;99.90;;;;;;5070525;28;20631;-78
2021/09/07 05:03:39;;;;;;;13.13;11.77;;;17.90;99.90;;;;;;5071722;28;20581;-77
2021/09/07 05:06:04;;;;;;;14.63;10.17;;;17.90;99.90;;;;;;5051730;28;20634;-78
2021/09/07 05:08:30;;;;;;;11.03;9.90;;;17.90;99.90;;;;;;5061773;28;20180;-78
2021/09/07 05:10:56;;;;;;;12.07;10.47;;;17.90;99.90;;;;;;5053802;28;20196;-78
2021/09/07 05:13:25;;;;;;;12.93;11.57;;;17.90;99.90;;;;;;5054329;28;20645;-78
2021/09/07 05:15:51;;;;;;;12.17;10.87;;;17.90;99.90;;;;;;5071261;28;20657;-78
2021/09/07 05:18:16;;;;;;;12.60;11.30;;;18.00;99.90;;;;;;5071400;28;20627;-77
2021/09/07 05:20:42;;;;;;;14.30;11.33;;;18.00;99.90;;;;;;5071530;28;20699;-77
2021/09/07 05:23:08;;;;;;;14.37;11.87;;;18.00;99.90;;;;;;5071754;28;20183;-77
2021/09/07 05:25:33;;;;;;;11.63;10.43;;;18.00;99.90;;;;;;5071391;28;20694;-77
2021/09/07 05:27:59;;;;;;;12.83;10.63;;;18.00;99.90;;;;;;5071150;28;20685;-77
2021/09/07 05:30:25;;;;;;;12.67;11.37;;;18.00;99.90;;;;;;5053499;28;20180;-77
2021/09/07 05:32:51;;;;;;;13.43;10.30;;;18.10;99.90;;;;;;5071704;28;20156;-77
2021/09/07 05:35:16;;;;;;;13.53;11.80;;;18.10;99.90;;;;;;5071549;28;20207;-77
2021/09/07 05:37:42;;;;;;;13.40;12.00;;;18.10;99.90;;;;;;5069573;28;20584;-77
2021/09/07 05:40:13;;;;;;;13.03;11.30;;;18.20;99.90;;;;;;5071387;28;20168;-77
2021/09/07 05:42:42;;;;;;;11.60;9.70;;;18.20;99.90;;;;;;5070386;28;20172;-76
2021/09/07 05:45:13;;;;;;;12.10;10.53;;;18.30;99.90;;;;;;5053139;28;20630;-77
2021/09/07 05:47:39;;;;;;;13.30;10.90;;;18.30;99.90;;;;;;5071013;28;21181;-77
2021/09/07 05:50:06;;;;;;;11.13;10.03;;;18.40;99.90;;;;;;5071045;28;20612;-77
2021/09/07 05:52:32;;;;;;;11.40;9.90;;;18.50;99.90;;;;;;5069862;28;20541;-77
2021/09/07 05:54:58;;;;;;;10.97;9.50;;;18.60;99.90;;;;;;5069859;28;20649;-76
2021/09/07 05:57:24;;;;;;;13.10;11.50;;;18.70;99.90;;;;;;5070736;28;20192;-77
2021/09/07 05:59:51;;;;;;;12.73;10.20;;;18.80;99.90;;;;;;5070992;28;20609;-77
2021/09/07 06:02:16;;;;;;;15.47;11.33;;;18.80;99.90;;;;;;5053181;28;20702;-77
2021/09/07 06:04:42;;;;;;;15.13;11.40;;;18.80;99.90;;;;;;5069665;28;20630;-77
2021/09/07 06:07:08;;;;;;;11.00;9.70;;;18.80;99.90;;;;;;5069542;28;20177;-78
2021/09/07 06:09:33;;;;;;;12.07;8.97;;;18.80;99.90;;;;;;5070145;28;20778;-77
2021/09/07 06:11:59;;;;;;;12.40;11.07;;;18.80;99.90;;;;;;5071120;28;20200;-77
2021/09/07 06:14:25;;;;;;;21.17;11.53;;;18.90;99.90;;;;;;5070029;28;20255;-77
2021/09/07 06:16:50;;;;;;;14.90;11.17;;;18.90;99.90;;;;;;5070554;28;20160;-76
2021/09/07 06:19:16;;;;;;;12.13;10.40;;;18.90;99.90;;;;;;5069952;28;20161;-77
2021/09/07 06:21:42;;;;;;;12.57;10.87;;;19.00;99.90;;;;;;5052631;28;20192;-76
2021/09/07 06:24:08;;;;;;;13.57;11.33;;;19.10;99.90;;;;;;5071109;28;20184;-76
2021/09/07 06:26:33;;;;;;;12.47;10.67;;;19.10;99.90;;;;;;5069361;28;20177;-76
2021/09/07 06:28:59;;;;;;;12.50;11.27;;;19.20;99.90;;;;;;5074949;28;20172;-77
2021/09/07 06:31:25;;;;;;;12.23;10.40;;;19.20;99.90;;;;;;5074604;28;20192;-77
2021/09/07 06:33:50;;;;;;;13.40;12.03;;;19.30;99.90;;;;;;5074816;28;20168;-77
2021/09/07 06:36:16;;;;;;;12.40;11.10;;;19.40;99.90;;;;;;5074313;28;20625;-77
2021/09/07 06:38:42;;;;;;;12.60;11.17;;;19.50;99.90;;;;;;5074519;28;20651;-77
2021/09/07 06:41:08;;;;;;;12.13;10.10;;;19.60;99.90;;;;;;5073130;28;20660;-77
2021/09/07 06:43:35;;;;;;;11.77;10.57;;;19.70;99.90;;;;;;5074791;28;20187;-76
2021/09/07 06:46:01;;;;;;;11.07;9.87;;;19.80;99.90;;;;;;5074355;28;20986;-76
2021/09/07 06:48:26;;;;;;;15.77;11.63;;;20.00;99.90;;;;;;5074218;28;20653;-76
2021/09/07 06:50:52;;;;;;;12.30;10.83;;;20.10;99.90;;;;;;5073107;28;21070;-77
2021/09/07 06:53:18;;;;;;;15.30;10.53;;;20.20;99.90;;;;;;5073631;28;20576;-77
2021/09/07 06:55:44;;;;;;;12.30;11.00;;;20.20;99.90;;;;;;5074505;28;20172;-77
2021/09/07 06:58:09;;;;;;;12.27;10.50;;;20.30;99.90;;;;;;5073842;28;20164;-77
2021/09/07 07:00:35;;;;;;;11.20;10.10;;;20.30;99.90;;;;;;5073075;28;20551;-77
2021/09/07 07:03:00;;;;;;;12.43;10.97;;;20.40;99.90;;;;;;5074101;28;20172;-76
2021/09/07 07:05:26;;;;;;;14.20;11.20;;;20.50;99.90;;;;;;5076029;28;20200;-77
2021/09/07 07:07:52;;;;;;;12.20;10.90;;;20.50;99.90;;;;;;5075955;28;20900;-77
2021/09/07 07:10:18;;;;;;;14.17;11.33;;;20.60;99.90;;;;;;5074270;28;20179;-77
2021/09/07 07:12:44;;;;;;;12.40;10.70;;;20.70;99.90;;;;;;5074057;28;20574;-77
2021/09/07 07:15:10;;;;;;;10.83;9.77;;;20.80;99.90;;;;;;5074154;28;20195;-77
2021/09/07 07:17:35;;;;;;;14.70;10.87;;;20.90;99.90;;;;;;5072248;28;20176;-77
2021/09/07 07:20:02;;;;;;;13.03;10.87;;;21.00;99.90;;;;;;5074000;28;20574;-77
2021/09/07 07:22:28;;;;;;;12.53;11.07;;;21.10;99.90;;;;;;5073751;28;20199;-77
2021/09/07 07:24:54;;;;;;;14.93;11.20;;;21.20;99.90;;;;;;5072546;28;21184;-76
2021/09/07 07:27:20;;;;;;;12.33;11.10;;;21.40;99.90;;;;;;5072008;28;20164;-76
2021/09/07 07:29:46;;;;;;;12.00;10.80;;;21.50;99.90;;;;;;5072671;28;20627;-76
2021/09/07 07:32:12;;;;;;;13.27;11.53;;;21.70;99.90;;;;;;5073569;28;20689;-76
2021/09/07 07:34:38;;;;;;;10.90;9.80;;;21.80;99.90;;;;;;5072549;28;20169;-76
2021/09/07 07:37:05;;;;;;;12.80;11.40;;;22.00;99.90;;;;;;5073163;28;20179;-77
2021/09/07 07:39:34;;;;;;;11.10;10.00;;;22.20;99.90;;;;;;5073480;28;20631;-75
2021/09/07 07:42:00;;;;;;;12.93;10.93;;;22.40;99.90;;;;;;5071990;28;20701;-77
2021/09/07 07:44:26;;;;;;;13.27;11.60;;;22.50;99.90;;;;;;5073509;28;20569;-76
2021/09/07 07:46:52;;;;;;;10.40;9.30;;;22.60;99.90;;;;;;5054975;28;20665;-76
2021/09/07 07:49:18;;;;;;;13.43;11.20;;;22.70;99.90;;;;;;5073159;28;21153;-76
2021/09/07 07:51:44;;;;;;;12.97;10.27;;;22.80;99.90;;;;;;5073175;28;20763;-76
2021/09/07 07:54:10;;;;;;;12.63;10.23;;;22.90;99.90;;;;;;5073076;28;20570;-76
2021/09/07 07:56:37;;;;;;;12.70;11.27;;;22.90;99.90;;;;;;5072936;28;20168;-76
2021/09/07 07:59:03;;;;;;;16.50;10.93;;;23.00;99.90;;;;;;5073079;28;20654;-77
2021/09/07 08:01:29;;;;;;;11.93;10.73;;;23.00;99.90;;;;;;5073167;28;20630;-76
2021/09/07 08:03:58;;;;;;;12.10;9.97;;;23.00;99.90;;;;;;5073019;28;20575;-77
2021/09/07 08:06:24;;;;;;;13.33;11.93;;;23.10;99.90;;;;;;5072672;28;20781;-77
2021/09/07 08:08:50;;;;;;;13.37;10.97;;;23.00;99.90;;;;;;5072818;28;20657;-77
2021/09/07 08:11:17;;;;;;;13.83;10.97;;;23.00;99.90;;;;;;5073033;28;20356;-77
2021/09/07 08:13:43;;;;;;;13.40;11.20;;;23.10;99.90;;;;;;5072919;28;20575;-77
2021/09/07 08:16:08;;;;;;;13.70;11.53;;;23.20;99.90;;;;;;5071435;28;20566;-77
2021/09/07 08:18:34;;;;;;;13.67;11.77;;;23.40;99.90;;;;;;5071636;28;20175;-77
2021/09/07 08:21:00;;;;;;;15.27;10.60;;;23.60;99.90;;;;;;5071722;28;20228;-77
2021/09/07 08:23:26;;;;;;;13.40;10.67;;;23.80;99.90;;;;;;5072526;28;20540;-76
2021/09/07 08:25:52;;;;;;;17.30;11.70;;;24.00;99.90;;;;;;5072656;28;20640;-77
2021/09/07 08:28:18;;;;;;;12.73;11.33;;;24.20;99.90;;;;;;5070668;28;20218;-76
2021/09/07 08:30:44;;;;;;;13.43;11.77;;;24.30;99.90;;;;;;5072538;28;20184;-77
2021/09/07 08:33:14;;;;;;;14.00;11.50;;;24.50;99.90;;;;;;5072513;28;20567;-77
2021/09/07 08:35:40;;;;;;;14.37;12.87;;;24.60;99.90;;;;;;5072427;28;20265;-77
2021/09/07 08:38:06;;;;;;;12.33;11.03;;;24.60;99.90;;;;;;5070757;28;21156;-78
2021/09/07 08:40:32;;;;;;;11.53;10.33;;;24.70;99.90;;;;;;5071079;28;20659;-76
2021/09/07 08:43:01;;;;;;;12.47;11.20;;;24.80;99.90;;;;;;5054319;28;20179;-76
2021/09/07 08:45:28;;;;;;;18.33;11.80;;;25.00;99.90;;;;;;5072224;28;20208;-76
2021/09/07 08:47:57;;;;;;;13.80;11.93;;;25.20;99.90;;;;;;5071891;28;21364;-77
2021/09/07 08:50:23;;;;;;;12.83;11.00;;;25.50;99.90;;;;;;5069717;28;20629;-77
2021/09/07 08:52:49;;;;;;;14.43;10.93;;;25.90;99.90;;;;;;5071038;28;20579;-76
2021/09/07 08:55:15;;;;;;;13.20;11.40;;;26.30;99.90;;;;;;5071846;28;20586;-77
2021/09/07 08:57:41;;;;;;;14.60;11.87;;;26.60;99.90;;;;;;5070336;28;20571;-77
2021/09/07 09:00:07;;;;;;;12.20;10.90;;;26.80;99.90;;;;;;5071901;28;20670;-77
2021/09/07 09:02:43;;;;;;;12.53;11.23;;;27.10;99.90;;;;;;5070613;28;20192;-77
2021/09/07 09:05:09;;;;;;;11.73;10.53;;;27.30;99.90;;;;;;5070383;28;21203;-77
2021/09/07 09:07:37;;;;;;;12.10;10.50;;;27.50;99.90;;;;;;5071660;28;20916;-77
2021/09/07 09:10:03;;;;;;;15.73;11.73;;;27.70;99.90;;;;;;5071563;28;20579;-78
2021/09/07 09:12:37;;;;;;;12.13;10.93;;;27.80;99.90;;;;;;5071791;28;20652;-78
2021/09/07 09:15:11;;;;;;;11.80;10.70;;;27.70;99.90;;;;;;5070250;28;21163;-76
2021/09/07 09:17:36;;;;;;;13.80;11.67;;;27.80;99.90;;;;;;5071986;28;21138;-76
2021/09/07 09:20:13;;;;;;;12.60;11.40;;;28.00;99.90;;;;;;5070421;28;20608;-77
2021/09/07 09:22:53;;;;;;;14.13;11.37;;;27.90;99.90;;;;;;5070546;28;20175;-78
2021/09/07 09:25:19;;;;;;;15.20;10.80;;;27.90;99.90;;;;;;5070319;28;20683;-76
2021/09/07 09:27:46;;;;;;;11.53;10.43;;;28.00;99.90;;;;;;5071442;28;21098;-75
2021/09/07 09:30:13;;;;;;;11.80;10.53;;;28.20;99.90;;;;;;5071968;28;20175;-77
2021/09/07 09:32:48;;;;;;;13.27;11.73;;;28.60;99.90;;;;;;5053876;28;20574;-76
2021/09/07 09:35:15;;;;;;;10.50;9.40;;;29.00;99.90;;;;;;5053866;28;20670;-76
2021/09/07 09:38:05;;;;;;;12.93;10.77;;;29.50;99.90;;;;;;5071809;28;20613;-77
2021/09/07 09:40:33;;;;;;;11.70;10.60;;;29.90;99.90;;;;;;5071527;28;21005;-77
2021/09/07 09:43:18;;;;;;;12.27;10.80;;;30.40;99.90;;;;;;5070495;28;20681;-76
2021/09/07 09:45:44;;;;;;;16.50;12.20;;;30.70;99.40;;;;;;5070488;28;20626;-77
2021/09/07 09:48:21;;;;;;;13.60;11.77;;;31.30;99.20;;;;;;5071115;28;20622;-76
2021/09/07 09:50:50;;;;;;;10.97;9.67;;;31.90;98.40;;;;;;5070171;28;20952;-76
2021/09/07 09:53:18;;;;;;;11.53;10.53;;;32.50;98.00;;;;;;5078885;22;20667;-79
2021/09/07 09:55:45;;;;;;;13.20;11.90;;;33.30;97.30;;;;;;5042423;28;20580;-79
2021/09/07 09:58:11;;;;;;;11.30;10.20;;;34.10;96.00;;;;;;5043741;28;20591;-79
2021/09/07 10:00:37;;;;;;;11.83;10.63;;;34.60;94.10;;;;;;5032336;28;20591;-78
2021/09/07 10:03:09;;;;;;;11.10;10.10;;;35.10;91.90;;;;;;5048055;28;21013;-78
2021/09/07 10:05:35;;;;;;;11.20;10.20;;;35.60;90.60;;;;;;5055654;28;20645;-77
2021/09/07 10:08:01;;;;;;;12.10;11.00;;;36.20;90.00;;;;;;5050371;28;20587;-77
2021/09/07 10:10:27;;;;;;;11.50;10.37;;;36.80;85.50;;;;;;5056983;28;20944;-77
2021/09/07 10:12:57;;;;;;;11.33;10.43;;;36.80;76.70;;;;;;5056635;28;20986;-78
2021/09/07 10:15:31;;;;;;;11.33;10.33;;;36.60;73.60;;;;;;5057275;28;20904;-78
2021/09/07 10:21:10;;;;;;;10.60;9.57;;;37.00;68.50;;;;;;5015398;28;20580;-78
2021/09/07 10:26:47;;;;;;;11.90;10.50;;;37.10;66.50;;;;;;5058358;28;20635;-77
2021/09/07 10:29:31;;;;;;;10.50;9.50;;;37.50;67.60;;;;;;5048204;28;20587;-78
2021/09/07 10:31:57;;;;;;;9.57;8.67;;;37.80;66.60;;;;;;5058569;28;20607;-77
2021/09/07 10:34:28;;;;;;;9.23;8.33;;;38.10;64.90;;;;;;5058614;28;20621;-78
2021/09/07 10:37:08;;;;;;;9.70;8.80;;;38.20;63.20;;;;;;5058808;28;20564;-78
2021/09/07 10:39:39;;;;;;;8.70;8.00;;;38.10;56.00;;;;;;5057031;28;21012;-78
2021/09/07 10:42:07;;;;;;;8.17;7.47;;;37.50;56.10;;;;;;5057185;28;20664;-78
2021/09/07 10:44:41;;;;;;;7.97;7.37;;;37.30;56.40;;;;;;5055796;28;20682;-78
2021/09/07 10:47:14;;;;;;;9.57;8.67;;;37.20;56.50;;;;;;5055610;28;20961;-77
2021/09/07 10:49:44;;;;;;;8.50;7.80;;;37.20;55.70;;;;;;5056214;28;20563;-77
2021/09/07 10:52:13;;;;;;;11.67;8.83;;;37.10;55.70;;;;;;5055252;28;20641;-78
2021/09/07 10:55:11;;;;;;;8.97;8.10;;;37.10;56.30;;;;;;5053908;28;20583;-78
2021/09/07 10:57:43;;;;;;;7.37;6.67;;;37.10;55.70;;;;;;5051310;28;20618;-77
2021/09/07 11:00:16;;;;;;;9.83;7.63;;;37.20;55.20;;;;;;5057705;28;20687;-77
2021/09/07 11:02:55;;;;;;;8.60;7.73;;;37.20;55.40;;;;;;5058136;28;20619;-77
2021/09/07 11:05:24;;;;;;;8.80;8.00;;;37.40;55.00;;;;;;5058525;28;20698;-78
2021/09/07 11:07:52;;;;;;;9.13;8.33;;;37.50;53.50;;;;;;5040774;28;20586;-77
2021/09/07 11:10:18;;;;;;;8.80;8.00;;;37.50;51.50;;;;;;5041405;28;20579;-78
2021/09/07 11:12:55;;;;;;;9.70;8.83;;;37.20;50.80;;;;;;5059330;28;21242;-78
2021/09/07 11:15:23;;;;;;;8.37;7.67;;;37.10;49.60;;;;;;5059948;28;20169;-78
2021/09/07 11:17:51;;;;;;;8.93;8.23;;;37.00;50.60;;;;;;5057435;28;20579;-78
2021/09/07 11:20:18;;;;;;;8.70;7.80;;;37.10;50.10;;;;;;5056916;28;20594;-78
2021/09/07 11:22:44;;;;;;;7.80;7.10;;;37.10;49.90;;;;;;5055611;28;20603;-78
2021/09/07 11:25:13;;;;;;;7.93;7.23;;;37.20;50.20;;;;;;5056815;28;20677;-78
2021/09/07 11:28:00;;;;;;;8.50;7.80;;;37.10;48.70;;;;;;5053995;28;20666;-78
2021/09/07 11:30:35;;;;;;;7.93;7.27;;;36.80;48.40;;;;;;5053845;28;20582;-78
2021/09/07 11:33:16;;;;;;;8.80;8.10;;;36.70;48.80;;;;;;5054955;28;20606;-78
2021/09/07 11:35:49;;;;;;;5.97;5.57;;;36.60;48.50;;;;;;5054193;28;20567;-78
2021/09/07 11:38:16;;;;;;;7.00;6.40;;;36.30;47.50;;;;;;5053573;28;20590;-78
2021/09/07 11:40:57;;;;;;;7.40;6.90;;;36.20;47.90;;;;;;5055262;28;20705;-78
2021/09/07 11:43:33;;;;;;;6.73;6.13;;;36.00;47.20;;;;;;5053691;28;21009;-78
2021/09/07 11:46:14;;;;;;;5.20;4.80;;;35.70;47.00;;;;;;5054807;28;20618;-78
2021/09/07 11:48:42;;;;;;;7.67;7.07;;;35.40;46.80;;;;;;5053849;28;20611;-78
2021/09/07 11:51:09;;;;;;;8.33;6.70;;;35.20;46.20;;;;;;5053963;28;20644;-79
2021/09/07 11:53:35;;;;;;;7.70;7.13;;;35.00;46.40;;;;;;5055129;28;21197;-78
2021/09/07 11:56:02;;;;;;;8.33;7.63;;;34.90;46.80;;;;;;5055686;28;20575;-79
2021/09/07 11:58:39;;;;;;;8.30;7.33;;;34.90;47.10;;;;;;5055476;28;20599;-79
2021/09/07 12:01:12;;;;;;;6.93;6.33;;;34.70;46.40;;;;;;5055279;28;20598;-78
2021/09/07 12:04:01;;;;;;;7.60;6.53;;;34.70;47.20;;;;;;5054392;28;20608;-78
2021/09/07 12:06:42;;;;;;;6.80;6.20;;;34.60;47.80;;;;;;5054673;28;20619;-78
2021/09/07 12:09:13;;;;;;;6.13;5.53;;;34.50;46.60;;;;;;5054083;28;20582;-77
2021/09/07 12:11:41;;;;;;;6.33;5.77;;;34.40;47.20;;;;;;5055019;28;20642;-78
2021/09/07 12:14:10;;;;;;;5.90;4.90;;;34.40;47.50;;;;;;5054694;28;20588;-78
2021/09/07 12:17:02;;;;;;;7.33;6.10;;;34.50;48.00;;;;;;5052786;28;20966;-78
2021/09/07 12:19:37;;;;;;;7.20;6.10;;;34.50;48.30;;;;;;5053471;28;20582;-78
2021/09/07 12:22:20;;;;;;;6.30;5.70;;;34.60;48.70;;;;;;5053369;28;20607;-78
2021/09/07 12:25:12;;;;;;;7.10;6.00;;;34.70;48.70;;;;;;5053634;28;20721;-79
2021/09/07 12:27:41;;;;;;;5.70;5.20;;;34.80;48.00;;;;;;5055873;28;20919;-78
2021/09/07 12:30:21;;;;;;;4.60;4.20;;;34.80;47.70;;;;;;5055056;28;20583;-78
2021/09/07 12:33:02;;;;;;;6.40;5.17;;;34.70;46.60;;;;;;5053516;28;20618;-78
2021/09/07 12:35:44;;;;;;;7.00;6.07;;;34.60;47.40;;;;;;5053937;28;20589;-78
2021/09/07 12:38:16;;;;;;;5.80;5.20;;;34.60;46.60;;;;;;5054544;28;20641;-78
2021/09/07 12:40:45;;;;;;;6.90;6.20;;;34.30;46.70;;;;;;5053534;28;21140;-78
2021/09/07 12:43:33;;;;;;;9.43;5.43;;;34.00;46.50;;;;;;5035531;28;20635;-78